createdAt,value
2022-12-31T00:00:41.413Z,61.50
2022-12-31T00:02:43.103Z,62.38
2022-12-31T00:04:44.698Z,57.20
2022-12-31T00:06:47.134Z,64.10
2022-12-31T00:08:50.503Z,59.28
2022-12-31T00:10:52.078Z,56.72
2022-12-31T00:12:53.614Z,58.42
2022-12-31T00:14:55.123Z,57.15
2022-12-31T00:16:56.666Z,57.95
2022-12-31T00:19:00.261Z,55.22
2022-12-31T00:21:05.729Z,70.50
2022-12-31T00:23:07.712Z,64.47
2022-12-31T00:25:09.901Z,63.63
2022-12-31T00:27:11.453Z,64.10
2022-12-31T00:29:12.999Z,56.33
2022-12-31T00:31:20.437Z,56.70
2022-12-31T00:33:22.031Z,56.33
2022-12-31T00:35:23.570Z,48.67
2022-12-31T00:37:25.115Z,54.22
2022-12-31T00:39:26.658Z,52.67
2022-12-31T00:41:28.774Z,51.85
2022-12-31T00:43:30.367Z,51.38
2022-12-31T00:45:31.931Z,50.20
2022-12-31T00:47:33.479Z,47.35
2022-12-31T00:49:34.992Z,48.10
2022-12-31T00:51:36.557Z,49.58
2022-12-31T00:53:38.753Z,51.35
2022-12-31T00:55:40.285Z,48.80
2022-12-31T00:57:41.827Z,47.45
2022-12-31T00:59:43.378Z,50.92
2022-12-31T01:01:45.111Z,45.17
2022-12-31T01:03:48.356Z,45.30
2022-12-31T01:05:50.529Z,44.45
2022-12-31T01:07:52.123Z,42.78
2022-12-31T01:09:53.930Z,42.42
2022-12-31T01:11:55.479Z,41.88
2022-12-31T01:14:05.178Z,42.05
2022-12-31T01:18:09.637Z,41.75
2022-12-31T01:20:11.539Z,37.83
2022-12-31T01:22:13.203Z,39.25
2022-12-31T01:24:15.431Z,40.92
2022-12-31T01:26:18.509Z,39.33
2022-12-31T01:28:20.029Z,40.03
2022-12-31T01:30:21.559Z,39.97
2022-12-31T01:32:23.157Z,39.13
2022-12-31T01:34:24.849Z,35.78
2022-12-31T01:36:28.804Z,40.05
2022-12-31T01:38:30.683Z,40.03
2022-12-31T01:40:37.317Z,41.38
2022-12-31T01:42:38.886Z,39.97
2022-12-31T01:44:40.479Z,41.85
2022-12-31T01:46:47.959Z,45.45
2022-12-31T01:48:53.243Z,43.38
2022-12-31T01:50:55.183Z,44.53
2022-12-31T01:53:00.692Z,41.45
2022-12-31T01:55:24.105Z,43.30
2022-12-31T01:57:27.175Z,46.42
2022-12-31T01:59:29.888Z,39.78
2022-12-31T02:01:33.100Z,42.05
2022-12-31T02:03:35.333Z,40.05
2022-12-31T02:06:05.506Z,41.00
2022-12-31T02:08:07.426Z,41.47
2022-12-31T02:10:09.195Z,42.33
2022-12-31T02:12:11.589Z,43.00
2022-12-31T02:14:16.744Z,43.67
2022-12-31T02:16:47.836Z,42.42
2022-12-31T02:19:30.994Z,44.10
2022-12-31T02:21:41.473Z,42.65
2022-12-31T02:24:17.545Z,41.70
2022-12-31T02:26:32.243Z,40.67
2022-12-31T02:28:42.555Z,39.67
2022-12-31T02:30:50.620Z,37.78
2022-12-31T02:33:02.652Z,35.15
2022-12-31T02:35:12.347Z,35.22
2022-12-31T02:37:16.486Z,34.28
2022-12-31T02:39:18.648Z,32.72
2022-12-31T02:41:39.482Z,34.80
2022-12-31T02:43:47.221Z,32.00
2022-12-31T02:46:02.564Z,32.17
2022-12-31T02:48:23.115Z,32.63
2022-12-31T02:50:33.167Z,28.83
2022-12-31T02:52:58.431Z,25.80
2022-12-31T02:55:24.648Z,25.50
2022-12-31T02:57:38.648Z,24.45
2022-12-31T03:00:07.488Z,23.77
2022-12-31T03:02:16.187Z,25.35
2022-12-31T03:04:38.852Z,24.30
2022-12-31T03:06:42.026Z,27.33
2022-12-31T03:09:02.147Z,25.77
2022-12-31T03:11:23.647Z,22.65
2022-12-31T03:13:25.205Z,22.58
2022-12-31T03:15:29.784Z,23.58
2022-12-31T03:17:31.316Z,22.67
2022-12-31T03:19:51.388Z,22.17
2022-12-31T03:22:11.760Z,22.45
2022-12-31T03:24:31.750Z,22.00
2022-12-31T03:26:33.284Z,22.55
2022-12-31T03:28:34.804Z,22.15
2022-12-31T03:30:38.798Z,21.27
2022-12-31T03:32:42.594Z,21.60
2022-12-31T03:34:44.121Z,21.88
2022-12-31T03:36:45.622Z,21.83
2022-12-31T03:38:51.235Z,19.02
2022-12-31T03:40:54.296Z,20.23
2022-12-31T03:42:56.407Z,19.75
2022-12-31T03:44:57.890Z,20.48
2022-12-31T03:46:59.409Z,21.42
2022-12-31T03:49:00.922Z,20.17
2022-12-31T03:51:02.469Z,21.70
2022-12-31T03:53:04.223Z,18.75
2022-12-31T03:55:07.087Z,21.50
2022-12-31T03:57:08.613Z,22.02
2022-12-31T03:59:10.150Z,22.92
2022-12-31T04:01:11.784Z,21.77
2022-12-31T04:03:13.483Z,22.98
2022-12-31T04:05:16.005Z,25.65
2022-12-31T04:07:17.675Z,26.70
2022-12-31T04:09:19.234Z,21.85
2022-12-31T04:11:21.253Z,20.08
2022-12-31T04:13:22.920Z,18.77
2022-12-31T04:15:24.476Z,21.40
2022-12-31T04:17:26.574Z,18.23
2022-12-31T04:19:28.132Z,20.33
2022-12-31T04:21:34.791Z,20.77
2022-12-31T04:23:36.663Z,14.88
2022-12-31T04:25:38.193Z,15.13
2022-12-31T04:27:40.860Z,15.90
2022-12-31T04:29:42.374Z,16.35
2022-12-31T04:31:43.938Z,13.32
2022-12-31T04:33:45.659Z,13.82
2022-12-31T04:35:47.190Z,13.82
2022-12-31T04:37:48.816Z,14.25
2022-12-31T04:39:50.343Z,15.43
2022-12-31T04:41:52.613Z,14.10
2022-12-31T04:43:56.066Z,13.43
2022-12-31T04:45:57.841Z,12.00
2022-12-31T04:47:59.416Z,13.48
2022-12-31T04:50:00.911Z,13.48
2022-12-31T04:52:02.475Z,12.50
2022-12-31T04:54:04.224Z,13.65
2022-12-31T04:56:06.881Z,13.80
2022-12-31T04:58:08.414Z,13.18
2022-12-31T05:00:10.654Z,11.95
2022-12-31T05:02:12.464Z,10.75
2022-12-31T05:04:14.148Z,10.48
2022-12-31T05:06:18.270Z,11.57
2022-12-31T05:08:20.263Z,11.50
2022-12-31T05:10:21.757Z,11.25
2022-12-31T05:12:23.298Z,11.32
2022-12-31T05:14:24.990Z,12.38
2022-12-31T05:16:26.603Z,10.80
2022-12-31T05:18:29.052Z,11.40
2022-12-31T05:20:30.670Z,12.88
2022-12-31T05:22:32.263Z,11.30
2022-12-31T05:24:33.824Z,11.95
2022-12-31T05:26:35.409Z,10.30
2022-12-31T05:28:36.929Z,10.73
2022-12-31T05:30:38.535Z,11.07
2022-12-31T05:32:40.297Z,12.70
2022-12-31T05:34:41.961Z,12.18
2022-12-31T05:36:43.506Z,10.52
2022-12-31T05:38:45.024Z,10.30
2022-12-31T05:40:46.557Z,10.88
2022-12-31T05:42:49.775Z,10.48
2022-12-31T05:44:51.423Z,10.45
2022-12-31T05:46:52.983Z,11.30
2022-12-31T05:48:54.475Z,10.65
2022-12-31T05:50:56.126Z,10.75
2022-12-31T05:52:57.684Z,11.57
2022-12-31T05:54:59.207Z,10.48
2022-12-31T05:57:00.735Z,11.02
2022-12-31T05:59:02.239Z,10.23
2022-12-31T06:01:03.870Z,10.88
2022-12-31T06:03:05.725Z,10.50
2022-12-31T06:05:07.622Z,9.82
2022-12-31T06:07:09.158Z,9.75
2022-12-31T06:09:10.790Z,10.52
2022-12-31T06:11:12.397Z,10.20
2022-12-31T06:13:13.958Z,9.85
2022-12-31T06:15:15.921Z,9.73
2022-12-31T06:17:17.644Z,10.52
2022-12-31T06:19:19.144Z,10.77
2022-12-31T06:21:21.607Z,10.68
2022-12-31T06:23:23.101Z,14.23
2022-12-31T06:25:24.625Z,10.38
2022-12-31T06:27:26.195Z,9.45
2022-12-31T06:29:27.747Z,10.25
2022-12-31T06:31:29.297Z,11.35
2022-12-31T06:33:31.632Z,10.55
2022-12-31T06:35:33.317Z,11.98
2022-12-31T06:37:35.132Z,14.13
2022-12-31T06:39:36.698Z,17.70
2022-12-31T06:41:38.210Z,15.82
2022-12-31T06:43:40.506Z,15.73
2022-12-31T06:45:42.048Z,14.05
2022-12-31T06:47:43.549Z,13.48
2022-12-31T06:49:45.033Z,12.73
2022-12-31T06:51:47.776Z,11.70
2022-12-31T06:53:50.730Z,12.00
2022-12-31T06:55:52.531Z,13.20
2022-12-31T06:57:54.629Z,13.63
2022-12-31T06:59:56.438Z,12.57
2022-12-31T07:02:21.181Z,12.00
2022-12-31T07:04:44.401Z,13.50
2022-12-31T07:06:53.673Z,12.95
2022-12-31T07:08:59.056Z,14.55
2022-12-31T07:11:15.408Z,16.65
2022-12-31T07:13:52.282Z,13.40
2022-12-31T07:16:32.538Z,13.38
2022-12-31T07:18:39.136Z,12.75
2022-12-31T07:20:40.978Z,14.05
2022-12-31T07:22:43.982Z,11.80
2022-12-31T07:24:45.832Z,12.02
2022-12-31T07:27:07.566Z,14.00
2022-12-31T07:29:17.586Z,14.05
2022-12-31T07:31:34.796Z,11.90
2022-12-31T07:33:56.699Z,11.77
2022-12-31T07:36:24.607Z,11.30
2022-12-31T07:38:32.930Z,10.20
2022-12-31T07:41:07.394Z,12.90
2022-12-31T07:43:31.257Z,11.65
2022-12-31T07:45:32.781Z,11.55
2022-12-31T07:47:34.542Z,12.88
2022-12-31T07:49:42.172Z,11.65
2022-12-31T07:51:44.059Z,12.35
2022-12-31T07:53:45.599Z,10.63
2022-12-31T07:55:55.760Z,10.23
2022-12-31T07:58:22.225Z,9.52
2022-12-31T08:00:24.070Z,10.80
2022-12-31T08:02:25.646Z,9.43
2022-12-31T08:04:54.349Z,10.45
2022-12-31T08:07:19.212Z,9.90
2022-12-31T08:09:33.117Z,10.98
2022-12-31T08:11:34.582Z,11.57
2022-12-31T08:13:36.252Z,11.82
2022-12-31T08:15:39.322Z,16.77
2022-12-31T08:17:41.496Z,15.40
2022-12-31T08:19:43.963Z,14.13
2022-12-31T08:21:48.321Z,10.05
2022-12-31T08:24:02.378Z,8.85
2022-12-31T08:26:10.085Z,8.98
2022-12-31T08:28:36.417Z,8.60
2022-12-31T08:30:56.691Z,7.60
2022-12-31T08:33:14.270Z,9.57
2022-12-31T08:35:34.587Z,8.48
2022-12-31T08:37:59.221Z,7.80
2022-12-31T08:40:19.632Z,7.70
2022-12-31T08:42:21.151Z,7.32
2022-12-31T08:45:01.227Z,9.60
2022-12-31T08:47:02.811Z,10.93
2022-12-31T08:49:04.637Z,9.77
2022-12-31T08:51:07.128Z,7.90
2022-12-31T08:53:08.927Z,7.75
2022-12-31T08:55:15.731Z,7.82
2022-12-31T08:57:39.591Z,7.82
2022-12-31T08:59:53.264Z,7.55
2022-12-31T09:02:23.223Z,8.30
2022-12-31T09:04:53.221Z,8.10
2022-12-31T09:07:03.093Z,8.50
2022-12-31T09:12:00.420Z,9.75
2022-12-31T09:14:38.975Z,10.80
2022-12-31T09:17:06.815Z,9.88
2022-12-31T09:19:10.150Z,9.15
2022-12-31T09:21:14.980Z,8.75
2022-12-31T09:23:16.875Z,7.20
2022-12-31T09:25:21.408Z,7.88
2022-12-31T09:27:40.759Z,7.68
2022-12-31T09:30:00.639Z,8.00
2022-12-31T09:34:41.820Z,7.00
2022-12-31T09:36:48.489Z,7.03
2022-12-31T09:39:00.075Z,7.60
2022-12-31T09:41:01.590Z,8.07
2022-12-31T09:43:24.802Z,7.82
2022-12-31T09:45:57.379Z,8.60
2022-12-31T09:48:12.324Z,8.57
2022-12-31T09:50:32.883Z,7.60
2022-12-31T09:52:50.084Z,13.45
2022-12-31T09:55:23.887Z,10.23
2022-12-31T09:57:31.502Z,8.50
2022-12-31T09:59:45.582Z,8.60
2022-12-31T10:02:03.079Z,7.95
2022-12-31T10:04:40.738Z,7.70
2022-12-31T10:07:17.350Z,6.82
2022-12-31T10:09:39.233Z,7.55
2022-12-31T10:11:55.754Z,6.45
2022-12-31T10:14:22.070Z,7.90
2022-12-31T10:16:49.363Z,7.20
2022-12-31T10:19:18.413Z,8.57
2022-12-31T10:21:32.239Z,7.20
2022-12-31T10:23:36.445Z,8.23
2022-12-31T10:26:00.252Z,8.48
2022-12-31T10:28:20.574Z,7.10
2022-12-31T10:30:24.183Z,7.82
2022-12-31T10:32:40.618Z,7.88
2022-12-31T10:34:51.571Z,8.45
2022-12-31T10:37:10.566Z,5.97
2022-12-31T10:39:30.634Z,7.40
2022-12-31T10:41:57.021Z,7.22
2022-12-31T10:44:21.489Z,8.18
2022-12-31T10:46:41.533Z,7.97
2022-12-31T10:49:11.792Z,11.82
2022-12-31T10:51:30.708Z,9.63
2022-12-31T10:53:53.118Z,6.53
2022-12-31T10:56:28.677Z,7.18
2022-12-31T10:58:51.560Z,7.38
2022-12-31T11:01:18.236Z,6.68
2022-12-31T11:03:54.230Z,6.70
2022-12-31T11:06:27.633Z,7.88
2022-12-31T11:08:47.203Z,8.63
2022-12-31T11:11:09.532Z,7.80
2022-12-31T11:13:29.904Z,9.27
2022-12-31T11:15:54.976Z,11.00
2022-12-31T11:18:19.991Z,10.15
2022-12-31T11:20:50.341Z,9.10
2022-12-31T11:23:00.754Z,7.72
2022-12-31T11:25:18.266Z,8.40
2022-12-31T11:27:31.275Z,6.70
2022-12-31T11:29:53.764Z,15.52
2022-12-31T11:32:22.611Z,6.90
2022-12-31T11:34:48.795Z,8.40
2022-12-31T11:37:09.023Z,8.23
2022-12-31T11:39:41.246Z,6.57
2022-12-31T11:42:00.046Z,10.18
2022-12-31T11:44:38.249Z,7.82
2022-12-31T11:46:51.956Z,8.68
2022-12-31T11:49:08.618Z,6.40
2022-12-31T11:51:16.147Z,5.97
2022-12-31T11:53:33.162Z,7.47
2022-12-31T11:56:00.245Z,6.55
2022-12-31T11:58:13.312Z,32.70
2022-12-31T12:00:19.013Z,12.40
2022-12-31T12:02:28.187Z,7.15
2022-12-31T12:04:31.059Z,7.70
2022-12-31T12:06:32.974Z,5.93
2022-12-31T12:08:35.064Z,7.82
2022-12-31T12:10:44.274Z,6.00
2022-12-31T12:12:45.853Z,5.75
2022-12-31T12:14:53.727Z,6.13
2022-12-31T12:17:00.814Z,5.88
2022-12-31T12:19:15.724Z,6.70
2022-12-31T12:21:20.806Z,7.45
2022-12-31T12:23:25.180Z,6.95
2022-12-31T12:25:37.114Z,8.15
2022-12-31T12:27:38.636Z,6.70
2022-12-31T12:29:40.158Z,8.80
2022-12-31T12:31:42.619Z,7.82
2022-12-31T12:33:46.402Z,13.00
2022-12-31T12:35:48.514Z,13.80
2022-12-31T12:37:59.672Z,7.70
2022-12-31T12:40:19.200Z,7.85
2022-12-31T12:42:20.713Z,6.88
2022-12-31T12:44:22.195Z,7.55
2022-12-31T12:46:35.216Z,8.93
2022-12-31T12:48:46.116Z,10.00
2022-12-31T12:50:49.342Z,11.75
2022-12-31T12:53:09.543Z,12.57
2022-12-31T12:55:21.837Z,10.07
2022-12-31T12:57:34.730Z,11.00
2022-12-31T12:59:45.136Z,11.48
2022-12-31T13:02:01.638Z,6.15
2022-12-31T13:07:05.565Z,25.75
2022-12-31T13:09:31.455Z,8.82
2022-12-31T13:11:45.366Z,10.85
2022-12-31T13:14:07.799Z,17.92
2022-12-31T13:16:23.875Z,17.63
2022-12-31T13:18:53.094Z,15.32
2022-12-31T13:21:07.627Z,11.38
2022-12-31T13:23:16.955Z,14.70
2022-12-31T13:25:56.285Z,10.20
2022-12-31T13:28:05.320Z,11.38
2022-12-31T13:30:22.053Z,12.63
2022-12-31T13:32:35.058Z,16.23
2022-12-31T13:34:44.114Z,13.05
2022-12-31T13:36:48.675Z,12.40
2022-12-31T13:38:56.075Z,12.55
2022-12-31T13:41:01.121Z,12.18
2022-12-31T13:43:31.648Z,13.65
2022-12-31T13:45:39.395Z,14.18
2022-12-31T13:47:57.073Z,14.98
2022-12-31T13:50:20.219Z,12.38
2022-12-31T13:52:30.887Z,14.30
2022-12-31T13:54:41.199Z,15.70
2022-12-31T13:56:45.531Z,26.85
2022-12-31T13:58:54.122Z,12.25
2022-12-31T14:01:01.722Z,9.93
2022-12-31T14:03:23.415Z,8.38
2022-12-31T14:06:03.734Z,9.68
2022-12-31T14:08:06.512Z,11.57
2022-12-31T14:10:16.011Z,13.02
2022-12-31T14:12:17.973Z,11.98
2022-12-31T14:14:42.089Z,35.88
2022-12-31T14:17:19.032Z,103.82
2022-12-31T14:19:55.189Z,15.63
2022-12-31T14:22:01.405Z,14.60
2022-12-31T14:24:40.954Z,57.17
2022-12-31T14:26:52.194Z,19.35
2022-12-31T14:29:14.755Z,15.18
2022-12-31T14:31:50.218Z,22.20
2022-12-31T14:34:18.231Z,10.60
2022-12-31T14:36:51.895Z,17.65
2022-12-31T14:39:06.833Z,12.90
2022-12-31T14:41:22.887Z,10.90
2022-12-31T14:43:55.214Z,19.30
2022-12-31T14:46:15.436Z,18.00
2022-12-31T14:48:24.108Z,10.13
2022-12-31T14:50:28.399Z,10.60
2022-12-31T14:52:32.620Z,28.98
2022-12-31T14:54:37.825Z,11.00
2022-12-31T14:56:45.047Z,18.90
2022-12-31T14:58:59.478Z,12.48
2022-12-31T15:01:09.003Z,14.52
2022-12-31T15:03:13.833Z,14.00
2022-12-31T15:05:20.241Z,16.27
2022-12-31T15:07:38.566Z,20.42
2022-12-31T15:10:07.921Z,39.17
2022-12-31T15:12:38.864Z,24.65
2022-12-31T15:15:10.042Z,27.00
2022-12-31T15:17:14.415Z,49.90
2022-12-31T15:19:18.753Z,34.65
2022-12-31T15:21:38.889Z,36.33
2022-12-31T15:23:42.385Z,27.27
2022-12-31T15:25:48.704Z,40.83
2022-12-31T15:27:50.564Z,31.95
2022-12-31T15:29:52.244Z,21.65
2022-12-31T15:31:55.128Z,21.58
2022-12-31T15:34:21.137Z,26.77
2022-12-31T15:36:25.526Z,16.67
2022-12-31T15:38:29.791Z,20.50
2022-12-31T15:40:31.381Z,43.75
2022-12-31T15:42:50.572Z,21.05
2022-12-31T15:44:59.271Z,22.73
2022-12-31T15:47:10.761Z,18.05
2022-12-31T15:49:18.354Z,38.28
2022-12-31T15:51:24.001Z,15.30
2022-12-31T15:53:43.476Z,14.98
2022-12-31T15:55:49.977Z,15.93
2022-12-31T15:57:52.065Z,35.22
2022-12-31T15:59:59.270Z,19.40
2022-12-31T16:02:01.167Z,29.35
2022-12-31T16:04:05.825Z,30.85
2022-12-31T16:06:15.415Z,25.40
2022-12-31T16:08:21.518Z,32.63
2022-12-31T16:10:30.198Z,35.20
2022-12-31T16:12:40.765Z,28.25
2022-12-31T16:14:51.673Z,14.75
2022-12-31T16:16:59.469Z,21.35
2022-12-31T16:19:01.007Z,29.05
2022-12-31T16:21:02.507Z,21.83
2022-12-31T16:23:19.975Z,21.73
2022-12-31T16:25:31.222Z,12.07
2022-12-31T16:27:35.501Z,19.70
2022-12-31T16:29:41.640Z,35.35
2022-12-31T16:31:44.840Z,20.40
2022-12-31T16:33:47.192Z,14.02
2022-12-31T16:35:56.812Z,16.40
2022-12-31T16:38:07.907Z,18.50
2022-12-31T16:40:21.983Z,11.88
2022-12-31T16:42:25.686Z,16.15
2022-12-31T16:44:29.011Z,13.38
2022-12-31T16:46:32.120Z,13.85
2022-12-31T16:48:33.802Z,12.75
2022-12-31T16:50:36.600Z,12.52
2022-12-31T16:52:40.917Z,12.55
2022-12-31T16:54:47.537Z,12.32
2022-12-31T16:56:49.321Z,14.15
2022-12-31T16:58:58.465Z,12.60
2022-12-31T17:01:10.898Z,11.15
2022-12-31T17:03:14.236Z,11.35
2022-12-31T17:05:20.808Z,12.63
2022-12-31T17:07:31.221Z,13.43
2022-12-31T17:09:37.031Z,12.45
2022-12-31T17:11:50.914Z,12.32
2022-12-31T17:14:05.949Z,14.30
2022-12-31T17:16:07.560Z,13.32
2022-12-31T17:18:19.770Z,12.23
2022-12-31T17:20:28.469Z,22.90
2022-12-31T17:22:37.222Z,15.65
2022-12-31T17:24:39.631Z,12.00
2022-12-31T17:26:41.224Z,12.10
2022-12-31T17:28:50.982Z,13.77
2022-12-31T17:30:52.775Z,14.68
2022-12-31T17:33:02.279Z,17.23
2022-12-31T17:35:27.874Z,14.70
2022-12-31T17:37:30.769Z,18.92
2022-12-31T17:42:39.585Z,15.07
2022-12-31T17:44:43.462Z,19.92
2022-12-31T17:46:45.246Z,17.88
2022-12-31T17:48:51.498Z,16.30
2022-12-31T17:50:55.101Z,17.05
2022-12-31T17:53:00.629Z,19.80
2022-12-31T17:55:02.144Z,20.42
2022-12-31T17:57:03.854Z,18.17
2022-12-31T17:59:06.978Z,12.43
2022-12-31T18:01:10.128Z,13.65
2022-12-31T18:03:11.796Z,13.05
2022-12-31T18:05:19.831Z,15.55
2022-12-31T18:07:21.344Z,15.65
2022-12-31T18:09:22.927Z,12.80
2022-12-31T18:11:24.907Z,9.23
2022-12-31T18:13:27.502Z,12.70
2022-12-31T18:15:29.053Z,13.45
2022-12-31T18:17:30.650Z,19.77
2022-12-31T18:20:03.773Z,12.73
2022-12-31T18:21:55.120Z,17.33
2022-12-31T18:25:57.497Z,10.63
2022-12-31T18:27:58.974Z,15.50
2022-12-31T18:30:04.952Z,19.58
2022-12-31T18:32:17.991Z,31.23
2022-12-31T18:34:19.558Z,16.92
2022-12-31T18:36:22.256Z,19.05
2022-12-31T18:38:23.900Z,15.13
2022-12-31T18:40:25.731Z,12.80
2022-12-31T18:42:28.499Z,13.95
2022-12-31T18:44:30.067Z,18.60
2022-12-31T18:46:31.634Z,15.25
2022-12-31T18:48:33.131Z,17.70
2022-12-31T18:50:35.354Z,18.30
2022-12-31T18:52:36.883Z,19.70
2022-12-31T18:54:38.367Z,20.75
2022-12-31T18:56:46.555Z,18.38
2022-12-31T18:58:49.310Z,18.35
2022-12-31T19:00:51.867Z,16.90
2022-12-31T19:02:53.467Z,15.48
2022-12-31T19:04:54.995Z,18.90
2022-12-31T19:06:56.994Z,14.18
2022-12-31T19:09:00.836Z,17.92
2022-12-31T19:11:02.962Z,18.02
2022-12-31T19:13:04.560Z,16.92
2022-12-31T19:15:15.958Z,31.02
2022-12-31T19:17:17.647Z,22.70
2022-12-31T19:19:19.230Z,16.85
2022-12-31T19:21:22.751Z,15.32
2022-12-31T19:23:24.274Z,16.25
2022-12-31T19:25:31.227Z,17.92
2022-12-31T19:27:32.802Z,24.10
2022-12-31T19:29:34.322Z,19.73
2022-12-31T19:31:35.873Z,19.20
2022-12-31T19:33:37.786Z,17.17
2022-12-31T19:35:39.980Z,17.25
2022-12-31T19:37:43.310Z,13.98
2022-12-31T19:39:44.847Z,13.82
2022-12-31T19:41:52.911Z,13.25
2022-12-31T19:43:58.230Z,14.27
2022-12-31T19:46:03.713Z,14.02
2022-12-31T19:48:05.529Z,15.88
2022-12-31T19:50:07.555Z,17.17
2022-12-31T19:52:09.084Z,12.90
2022-12-31T19:54:12.718Z,18.05
2022-12-31T19:56:19.808Z,12.60
2022-12-31T19:58:26.124Z,20.80
2022-12-31T20:00:27.685Z,23.85
2022-12-31T20:02:29.459Z,30.15
2022-12-31T20:04:31.103Z,24.05
2022-12-31T20:06:32.688Z,18.35
2022-12-31T20:08:35.695Z,17.42
2022-12-31T20:10:37.580Z,16.83
2022-12-31T20:12:44.078Z,13.88
2022-12-31T20:14:46.277Z,17.88
2022-12-31T20:16:47.937Z,15.57
2022-12-31T20:18:50.794Z,19.15
2022-12-31T20:20:55.743Z,14.13
2022-12-31T20:22:58.317Z,26.55
2022-12-31T20:24:59.876Z,14.35
2022-12-31T20:27:01.912Z,24.23
2022-12-31T20:29:03.462Z,23.13
2022-12-31T20:31:14.364Z,31.55
2022-12-31T20:33:19.137Z,24.40
2022-12-31T20:35:20.901Z,16.13
2022-12-31T20:37:22.426Z,16.65
2022-12-31T20:39:23.991Z,12.10
2022-12-31T20:41:26.328Z,12.65
2022-12-31T20:43:31.973Z,21.88
2022-12-31T20:45:33.523Z,15.68
2022-12-31T20:47:35.269Z,16.40
2022-12-31T20:50:09.855Z,11.40
2022-12-31T20:51:58.500Z,15.73
2022-12-31T20:54:08.596Z,14.02
2022-12-31T20:56:10.375Z,14.07
2022-12-31T20:58:11.871Z,16.42
2022-12-31T21:00:14.876Z,12.50
2022-12-31T21:02:21.262Z,17.95
2022-12-31T21:04:23.362Z,18.05
2022-12-31T21:06:25.277Z,15.60
2022-12-31T21:08:32.627Z,15.13
2022-12-31T21:10:36.339Z,16.38
2022-12-31T21:12:44.112Z,14.13
2022-12-31T21:14:45.680Z,16.02
2022-12-31T21:16:47.420Z,15.05
2022-12-31T21:18:49.006Z,14.93
2022-12-31T21:20:52.765Z,23.55
2022-12-31T21:22:54.448Z,20.15
2022-12-31T21:24:56.000Z,18.75
2022-12-31T21:26:57.536Z,14.13
2022-12-31T21:28:59.257Z,15.68
2022-12-31T21:31:03.411Z,12.65
2022-12-31T21:33:05.274Z,10.70
2022-12-31T21:35:41.158Z,10.88
2022-12-31T21:37:59.198Z,11.15
2022-12-31T21:39:50.073Z,11.23
2022-12-31T21:41:51.593Z,10.00
2022-12-31T21:43:53.068Z,11.02
2022-12-31T21:46:06.478Z,9.93
2022-12-31T21:48:21.330Z,10.23
2022-12-31T21:50:22.905Z,9.88
2022-12-31T21:52:27.079Z,15.05
2022-12-31T21:54:46.902Z,9.85
2022-12-31T21:56:48.453Z,13.15
2022-12-31T21:59:14.458Z,9.77
2022-12-31T22:01:37.361Z,11.65
2022-12-31T22:03:39.116Z,10.63
2022-12-31T22:05:59.108Z,11.20
2022-12-31T22:10:02.451Z,8.23
2022-12-31T22:12:04.203Z,10.52
2022-12-31T22:14:05.753Z,9.63
2022-12-31T22:16:08.179Z,9.25
2022-12-31T22:18:09.895Z,8.77
2022-12-31T22:20:28.191Z,7.95
2022-12-31T22:22:30.193Z,8.35
2022-12-31T22:24:31.913Z,14.77
2022-12-31T22:26:33.461Z,9.35
2022-12-31T22:28:39.708Z,7.50
2022-12-31T22:30:41.795Z,7.60
2022-12-31T22:32:43.368Z,7.18
2022-12-31T22:34:44.910Z,8.05
2022-12-31T22:36:46.406Z,7.60
2022-12-31T22:38:49.511Z,8.70
2022-12-31T22:40:51.078Z,7.25
2022-12-31T22:42:52.681Z,8.38
2022-12-31T22:44:54.173Z,8.48
2022-12-31T22:46:56.313Z,7.68
2022-12-31T22:48:59.205Z,8.55
2022-12-31T22:51:01.300Z,13.40
2022-12-31T22:53:02.834Z,13.75
2022-12-31T22:55:05.286Z,15.73
2022-12-31T22:57:06.926Z,12.75
2022-12-31T22:59:09.353Z,16.42
2022-12-31T23:01:23.132Z,16.90
2022-12-31T23:03:24.872Z,12.25
2022-12-31T23:05:26.421Z,82.35
2022-12-31T23:07:27.958Z,19.48
2022-12-31T23:09:47.894Z,10.15
2022-12-31T23:14:09.681Z,17.08
2022-12-31T23:16:30.108Z,12.15
2022-12-31T23:18:50.014Z,8.60
2022-12-31T23:23:16.185Z,8.88
2022-12-31T23:25:17.903Z,8.05
2022-12-31T23:27:19.457Z,8.75
2022-12-31T23:29:20.969Z,8.85
2022-12-31T23:31:22.614Z,13.60
2022-12-31T23:33:26.105Z,7.38
2022-12-31T23:35:28.807Z,8.10
2022-12-31T23:37:30.336Z,8.65
2022-12-31T23:39:31.924Z,9.10
2022-12-31T23:41:33.489Z,8.85
2022-12-31T23:43:35.036Z,7.78
2022-12-31T23:45:36.778Z,9.18
2022-12-31T23:47:38.448Z,7.38
2022-12-31T23:49:39.957Z,7.35
2022-12-31T23:51:41.560Z,6.45
2022-12-31T23:53:43.079Z,8.38
2022-12-31T23:55:44.638Z,8.55
2022-12-31T23:57:46.289Z,8.57
2022-12-31T23:59:47.794Z,8.32
